KMCJ

Houston

Houston, Texas, USA
METAR KMCJ 140435Z AUTO 34007G13KT 300V360 10SM CLR 02/M03 A3049 RMK A01
Observed Flight Rules
Nov-14 @ 04:35 UTC (13 minutes ago) Visual Flight Rules
Wind Visibility Clouds
340° at 7 knots
 Gusting to 13 knots
10 miles
  • Clear skies
Temperatures Readings
Current 2°C / 36°F
Dewpoint -3°C / 27°F
Humidity 70%
Altimeter 30.49" Hg
Pressure 1033 hPa
Elevation 69
METAR KMCJ 140435Z AUTO 34007G13KT 300V360 10SM CLR 02/M03 A3049 RMK A01
Observed Flight Rules
Nov-14 @ 04:35 UTC
(13 minutes ago)
VFR
Wind Visibility
340° at 7 knots
 Gusting to 13 knots
10 miles
Clouds
  • Clear skies
Temperature Dewpoint
2°C / 36°F -3°C / 27°F
Humidity Altimeter Pressure
70% 30.49" Hg 1033 hPa